Time;durP1;ratioP1;P1;durP2;ratioP2;P2;SDS_P1;SDS_P2;PMS_P1;PMS_P2;Temp;Humidity;BMP_temperature;BMP_pressure;BME280_temperature;BME280_humidity;BME280_pressure;Samples;Min_cycle;Max_cycle;Signal;HPM_P1;HPM_P2
2023/08/13 00:00:49;;;;;;;;;;;19.30;99.90;;;;;;4983993;28;19914;-92
2023/08/13 00:03:14;;;;;;;;;;;19.30;99.90;;;;;;4984017;28;19913;-92
2023/08/13 00:05:40;;;;;;;;;;;19.30;99.90;;;;;;4984017;28;19914;-92
2023/08/13 00:08:05;;;;;;;;;;;19.40;99.90;;;;;;5000160;28;19914;-92
2023/08/13 00:10:31;;;;;;;;;;;19.30;99.90;;;;;;5000278;28;20282;-92
2023/08/13 00:12:56;;;;;;;;;;;19.30;99.90;;;;;;4983849;28;19914;-91
2023/08/13 00:15:22;;;;;;;;;;;19.30;99.90;;;;;;4983268;28;20323;-92
2023/08/13 00:17:48;;;;;;;;;;;19.30;99.90;;;;;;4983255;28;19956;-92
2023/08/13 00:20:13;;;;;;;;;;;19.30;99.90;;;;;;4983274;28;19917;-96
2023/08/13 00:22:39;;;;;;;;;;;19.30;99.90;;;;;;4983565;28;19913;-92
2023/08/13 00:25:04;;;;;;;;;;;19.30;99.90;;;;;;4983223;28;19976;-93
2023/08/13 00:27:30;;;;;;;;;;;19.30;99.90;;;;;;4999185;28;19910;-92
2023/08/13 00:29:56;;;;;;;;;;;19.30;99.90;;;;;;4999131;28;19955;-92
2023/08/13 00:32:21;;;;;;;;;;;19.30;99.90;;;;;;4999351;28;20359;-92
2023/08/13 00:34:47;;;;;;;;;;;19.20;99.90;;;;;;4999063;28;19916;-92
2023/08/13 00:37:12;;;;;;;;;;;19.20;99.90;;;;;;4999318;28;20025;-91
2023/08/13 00:39:38;;;;;;;;;;;19.20;99.90;;;;;;4999000;28;19952;-91
2023/08/13 00:42:03;;;;;;;;;;;19.20;99.90;;;;;;4982943;28;19971;-95
2023/08/13 00:44:29;;;;;;;;;;;19.20;99.90;;;;;;4983104;28;20350;-96
2023/08/13 00:46:54;;;;;;;;;;;19.20;99.90;;;;;;4982947;28;19925;-95
2023/08/13 00:49:20;;;;;;;;;;;19.10;99.90;;;;;;4999142;28;20316;-93
2023/08/13 00:51:46;;;;;;;;;;;19.10;99.90;;;;;;4999509;28;19920;-94
2023/08/13 00:54:12;;;;;;;;;;;19.10;99.90;;;;;;4999662;28;19916;-95
2023/08/13 00:56:40;;;;;;;;;;;19.10;99.90;;;;;;4983341;28;22824;-94
2023/08/13 00:59:06;;;;;;;;;;;19.10;99.90;;;;;;4999446;28;19932;-95
2023/08/13 01:01:32;;;;;;;;;;;19.00;99.90;;;;;;4999092;28;20362;-94
2023/08/13 01:03:58;;;;;;;;;;;19.00;99.90;;;;;;4999280;28;19913;-94
2023/08/13 01:06:34;;;;;;;;;;;19.00;99.90;;;;;;4999165;28;20271;-95
2023/08/13 01:09:06;;;;;;;;;;;19.00;99.90;;;;;;4998991;28;19909;-94
2023/08/13 01:11:35;;;;;;;;;;;19.00;99.90;;;;;;4998708;28;20362;-94
2023/08/13 01:14:07;;;;;;;;;;;18.90;99.90;;;;;;4998538;28;20007;-94
2023/08/13 01:16:33;;;;;;;;;;;18.90;99.90;;;;;;4998829;28;20019;-94
2023/08/13 01:18:59;;;;;;;;;;;18.90;99.90;;;;;;4982634;28;19917;-95
2023/08/13 01:21:24;;;;;;;;;;;18.80;99.90;;;;;;4998912;28;19964;-91
2023/08/13 01:23:50;;;;;;;;;;;18.80;99.90;;;;;;4982692;28;19914;-90
2023/08/13 01:26:17;;;;;;;;;;;18.70;99.90;;;;;;4983239;28;19913;-90
2023/08/13 01:28:56;;;;;;;;;;;18.70;99.90;;;;;;4999232;28;20266;-91
2023/08/13 01:31:25;;;;;;;;;;;18.70;99.90;;;;;;4998811;28;19913;-91
2023/08/13 01:33:52;;;;;;;;;;;18.70;99.90;;;;;;4998959;28;19933;-91
2023/08/13 01:36:18;;;;;;;;;;;18.60;99.90;;;;;;4982947;28;20367;-91
2023/08/13 01:38:44;;;;;;;;;;;18.60;99.90;;;;;;4998570;28;19909;-92
2023/08/13 01:41:09;;;;;;;;;;;18.60;99.90;;;;;;4982500;28;19913;-91
2023/08/13 01:43:35;;;;;;;;;;;18.60;99.90;;;;;;4982309;28;19914;-95
2023/08/13 01:46:01;;;;;;;;;;;18.60;99.90;;;;;;4998227;28;19929;-95
2023/08/13 01:48:27;;;;;;;;;;;18.50;99.90;;;;;;4998330;28;19913;-95
2023/08/13 01:50:53;;;;;;;;;;;18.50;99.90;;;;;;4998587;28;19921;-95
2023/08/13 01:53:18;;;;;;;;;;;18.50;99.90;;;;;;4998811;28;19960;-95
2023/08/13 01:55:44;;;;;;;;;;;18.40;99.90;;;;;;4982721;28;19914;-95
2023/08/13 01:58:10;;;;;;;;;;;18.40;99.90;;;;;;4998878;28;19910;-90
2023/08/13 02:00:36;;;;;;;;;;;18.40;99.90;;;;;;4981957;28;20247;-94
2023/08/13 02:03:01;;;;;;;;;;;18.40;99.90;;;;;;4998091;28;19916;-94
2023/08/13 02:05:27;;;;;;;;;;;18.40;99.90;;;;;;4981709;28;20333;-95
2023/08/13 02:07:53;;;;;;;;;;;18.30;99.90;;;;;;4981946;28;19921;-94
2023/08/13 02:10:18;;;;;;;;;;;18.40;99.90;;;;;;4997858;28;19968;-91
2023/08/13 02:12:44;;;;;;;;;;;18.30;99.90;;;;;;4997770;28;20363;-91
2023/08/13 02:15:09;;;;;;;;;;;18.30;99.90;;;;;;4997827;28;20252;-95
2023/08/13 02:17:35;;;;;;;;;;;18.30;99.90;;;;;;4981798;28;19956;-94
2023/08/13 02:20:01;;;;;;;;;;;18.20;99.90;;;;;;4998531;28;19913;-94
2023/08/13 02:22:27;;;;;;;;;;;18.20;99.90;;;;;;4982478;28;20006;-95
2023/08/13 02:24:52;;;;;;;;;;;18.20;99.90;;;;;;4997767;28;19971;-95
2023/08/13 02:27:18;;;;;;;;;;;18.20;99.90;;;;;;4981460;28;19918;-94
2023/08/13 02:29:43;;;;;;;;;;;18.10;99.90;;;;;;4997779;28;19925;-91
2023/08/13 02:32:09;;;;;;;;;;;18.20;99.90;;;;;;4981109;28;20016;-91
2023/08/13 02:34:42;;;;;;;;;;;18.10;99.90;;;;;;4981244;28;19988;-91
2023/08/13 02:37:07;;;;;;;;;;;18.10;99.90;;;;;;4997351;28;20000;-90
2023/08/13 02:39:33;;;;;;;;;;;18.10;99.90;;;;;;4981144;28;20002;-91
2023/08/13 02:41:58;;;;;;;;;;;18.10;99.90;;;;;;4981143;28;19914;-92
2023/08/13 02:44:25;;;;;;;;;;;18.10;99.90;;;;;;4981092;28;19914;-91
2023/08/13 02:46:50;;;;;;;;;;;18.10;99.90;;;;;;4996971;28;19921;-91
2023/08/13 02:49:16;;;;;;;;;;;18.10;99.90;;;;;;4981327;28;19918;-90
2023/08/13 02:51:41;;;;;;;;;;;18.10;99.90;;;;;;4998267;28;19913;-94
2023/08/13 02:54:07;;;;;;;;;;;18.10;99.90;;;;;;5002324;28;19909;-95
2023/08/13 02:56:32;;;;;;;;;;;18.10;99.90;;;;;;4986764;28;19914;-94
2023/08/13 02:58:58;;;;;;;;;;;18.00;99.90;;;;;;5002052;28;20359;-94
2023/08/13 03:01:23;;;;;;;;;;;18.00;99.90;;;;;;5002304;28;19910;-96
2023/08/13 03:03:52;;;;;;;;;;;18.00;99.90;;;;;;4984903;28;20252;-94
2023/08/13 03:06:18;;;;;;;;;;;18.00;99.90;;;;;;4982528;28;19917;-91
2023/08/13 03:08:43;;;;;;;;;;;18.00;99.90;;;;;;4981405;28;19922;-92
2023/08/13 03:11:09;;;;;;;;;;;18.00;99.90;;;;;;4982374;28;19924;-91
2023/08/13 03:13:34;;;;;;;;;;;18.00;99.90;;;;;;4984538;28;19920;-92
2023/08/13 03:16:00;;;;;;;;;;;17.90;99.90;;;;;;4984377;28;19976;-91
2023/08/13 03:18:25;;;;;;;;;;;17.90;99.90;;;;;;5000607;28;19913;-91
2023/08/13 03:20:51;;;;;;;;;;;17.90;99.90;;;;;;5000438;28;20290;-92
2023/08/13 03:23:16;;;;;;;;;;;17.90;99.90;;;;;;4984910;28;19937;-96
2023/08/13 03:25:42;;;;;;;;;;;17.90;99.90;;;;;;5000990;28;19909;-95
2023/08/13 03:28:07;;;;;;;;;;;17.90;99.90;;;;;;4984697;28;19953;-95
2023/08/13 03:30:33;;;;;;;;;;;17.90;99.90;;;;;;4984869;28;19917;-95
2023/08/13 03:32:59;;;;;;;;;;;17.90;99.90;;;;;;5002333;28;19965;-91
2023/08/13 03:35:24;;;;;;;;;;;17.80;99.90;;;;;;4984004;28;19921;-91
2023/08/13 03:37:50;;;;;;;;;;;17.90;99.90;;;;;;4984258;28;19914;-91
2023/08/13 03:40:16;;;;;;;;;;;17.90;99.90;;;;;;5003210;28;19909;-95
2023/08/13 03:42:41;;;;;;;;;;;17.80;99.90;;;;;;5003393;28;19910;-94
2023/08/13 03:45:07;;;;;;;;;;;17.70;99.90;;;;;;4987104;28;19919;-94
2023/08/13 03:47:33;;;;;;;;;;;17.80;99.90;;;;;;4988796;28;19926;-95
2023/08/13 03:49:59;;;;;;;;;;;17.80;99.90;;;;;;5004362;28;19916;-95
2023/08/13 03:52:24;;;;;;;;;;;17.70;99.90;;;;;;5003370;28;19948;-96
2023/08/13 03:54:50;;;;;;;;;;;17.70;99.90;;;;;;5003873;28;19909;-94
2023/08/13 03:57:16;;;;;;;;;;;17.70;99.90;;;;;;5000370;28;19976;-94
2023/08/13 03:59:41;;;;;;;;;;;17.70;99.90;;;;;;4999785;28;19909;-94
2023/08/13 04:02:07;;;;;;;;;;;17.70;99.90;;;;;;4983821;28;19914;-94
2023/08/13 04:04:33;;;;;;;;;;;17.60;99.90;;;;;;5000136;28;19909;-94
2023/08/13 04:06:58;;;;;;;;;;;17.60;99.90;;;;;;4983876;28;19920;-95
2023/08/13 04:09:24;;;;;;;;;;;17.60;99.90;;;;;;4999788;28;19910;-94
2023/08/13 04:11:50;;;;;;;;;;;17.60;99.90;;;;;;5000701;28;20011;-91
2023/08/13 04:14:15;;;;;;;;;;;17.60;99.90;;;;;;4983193;28;19920;-91
2023/08/13 04:16:41;;;;;;;;;;;17.60;99.90;;;;;;4983359;28;19964;-91
2023/08/13 04:19:06;;;;;;;;;;;17.50;99.90;;;;;;4983189;28;20332;-91
2023/08/13 04:21:32;;;;;;;;;;;17.60;99.90;;;;;;4999370;28;19913;-91
2023/08/13 04:23:57;;;;;;;;;;;17.60;99.90;;;;;;4982745;28;20317;-91
2023/08/13 04:26:23;;;;;;;;;;;17.60;99.90;;;;;;4983149;28;19913;-91
2023/08/13 04:28:49;;;;;;;;;;;17.60;99.90;;;;;;4999539;28;20259;-91
2023/08/13 04:31:16;;;;;;;;;;;17.60;99.90;;;;;;4983301;28;19924;-91
2023/08/13 04:33:42;;;;;;;;;;;17.60;99.90;;;;;;4983526;28;20389;-93
2023/08/13 04:36:07;;;;;;;;;;;17.60;99.90;;;;;;4983240;28;19918;-94
2023/08/13 04:38:33;;;;;;;;;;;17.60;99.90;;;;;;4999690;28;19913;-94
2023/08/13 04:41:00;;;;;;;;;;;17.60;99.90;;;;;;4999317;28;19909;-95
2023/08/13 04:43:26;;;;;;;;;;;17.60;99.90;;;;;;4999037;28;20362;-94
2023/08/13 04:45:51;;;;;;;;;;;17.70;99.90;;;;;;4982679;28;20263;-90
2023/08/13 04:48:18;;;;;;;;;;;17.70;99.90;;;;;;4982662;28;20015;-90
2023/08/13 04:50:43;;;;;;;;;;;17.70;99.90;;;;;;4998738;28;19913;-91
2023/08/13 04:53:09;;;;;;;;;;;17.70;99.90;;;;;;5016488;28;20001;-91
2023/08/13 04:55:35;;;;;;;;;;;17.70;99.90;;;;;;4998904;28;19909;-91
2023/08/13 04:58:00;;;;;;;;;;;17.70;99.90;;;;;;4982431;28;20355;-91
2023/08/13 05:00:26;;;;;;;;;;;17.70;99.90;;;;;;4998695;28;19910;-90
2023/08/13 05:02:51;;;;;;;;;;;17.70;99.90;;;;;;4982748;28;20347;-91
2023/08/13 05:05:17;;;;;;;;;;;17.70;99.90;;;;;;4982496;28;20420;-92
2023/08/13 05:07:42;;;;;;;;;;;17.70;99.90;;;;;;4998755;28;19909;-92
2023/08/13 05:10:08;;;;;;;;;;;17.70;99.90;;;;;;4998495;28;20015;-92
2023/08/13 05:12:34;;;;;;;;;;;17.70;99.90;;;;;;4982713;28;19914;-90
2023/08/13 05:14:59;;;;;;;;;;;17.70;99.90;;;;;;4983327;28;19972;-91
2023/08/13 05:17:25;;;;;;;;;;;17.70;99.90;;;;;;4982402;28;20412;-91
2023/08/13 05:19:51;;;;;;;;;;;17.70;99.90;;;;;;5000667;28;20005;-96
2023/08/13 05:22:16;;;;;;;;;;;17.70;99.90;;;;;;4985275;28;20032;-96
2023/08/13 05:24:43;;;;;;;;;;;17.80;99.90;;;;;;5000871;28;20260;-96
2023/08/13 05:27:08;;;;;;;;;;;17.80;99.90;;;;;;4985035;28;19925;-96
2023/08/13 05:29:34;;;;;;;;;;;17.80;99.90;;;;;;5005221;28;19909;-96
2023/08/13 05:32:05;;;;;;;;;;;17.80;99.90;;;;;;5001658;28;19913;-96
2023/08/13 05:34:31;;;;;;;;;;;17.90;99.90;;;;;;5002053;28;19909;-96
2023/08/13 05:36:56;;;;;;;;;;;17.90;99.90;;;;;;4999226;28;19909;-95
2023/08/13 05:39:22;;;;;;;;;;;17.90;99.90;;;;;;4982901;28;19913;-96
2023/08/13 05:41:48;;;;;;;;;;;17.90;99.90;;;;;;4998627;28;19964;-96
2023/08/13 05:44:13;;;;;;;;;;;17.90;99.90;;;;;;4998625;28;19909;-94
2023/08/13 05:46:39;;;;;;;;;;;17.90;99.90;;;;;;4982567;28;20444;-95
2023/08/13 05:49:04;;;;;;;;;;;17.90;99.90;;;;;;4982653;28;19913;-96
2023/08/13 05:51:30;;;;;;;;;;;17.90;99.90;;;;;;4982236;28;19921;-95
2023/08/13 05:53:55;;;;;;;;;;;17.90;99.90;;;;;;5000413;28;19913;-92
2023/08/13 05:56:21;;;;;;;;;;;17.90;99.90;;;;;;5000144;28;20412;-91
2023/08/13 05:58:46;;;;;;;;;;;17.90;99.90;;;;;;4983900;28;19920;-91
2023/08/13 06:01:12;;;;;;;;;;;17.90;99.90;;;;;;4999766;28;19963;-91
2023/08/13 06:03:37;;;;;;;;;;;17.90;99.90;;;;;;4999528;28;19951;-91
2023/08/13 06:06:03;;;;;;;;;;;18.00;99.90;;;;;;5000199;28;19964;-93
2023/08/13 06:08:29;;;;;;;;;;;18.00;99.90;;;;;;4999903;28;19914;-92
2023/08/13 06:10:54;;;;;;;;;;;17.90;99.90;;;;;;4997768;28;19963;-90
2023/08/13 06:13:20;;;;;;;;;;;18.00;99.90;;;;;;4997840;28;19916;-90
2023/08/13 06:15:45;;;;;;;;;;;18.00;99.90;;;;;;4982521;28;19941;-96
2023/08/13 06:18:11;;;;;;;;;;;18.00;99.90;;;;;;4983318;28;19914;-95
2023/08/13 06:20:37;;;;;;;;;;;18.00;99.90;;;;;;4999961;28;19909;-94
2023/08/13 06:23:02;;;;;;;;;;;18.10;99.90;;;;;;4998805;28;20313;-95
2023/08/13 06:25:28;;;;;;;;;;;18.10;99.90;;;;;;4984090;28;19925;-96
2023/08/13 06:27:53;;;;;;;;;;;18.10;99.90;;;;;;4982954;28;19913;-96
2023/08/13 06:30:19;;;;;;;;;;;18.10;99.90;;;;;;4999556;28;19913;-96
2023/08/13 06:32:44;;;;;;;;;;;18.20;99.90;;;;;;4999179;28;20002;-96
2023/08/13 06:35:10;;;;;;;;;;;18.20;99.90;;;;;;4983156;28;19939;-95
2023/08/13 06:37:35;;;;;;;;;;;18.20;99.90;;;;;;4999333;28;20367;-96
2023/08/13 06:40:01;;;;;;;;;;;18.30;99.90;;;;;;5000508;28;20315;-96
2023/08/13 06:42:27;;;;;;;;;;;18.30;99.90;;;;;;5000022;28;19951;-96
2023/08/13 06:44:52;;;;;;;;;;;18.30;99.90;;;;;;4983120;28;19961;-96
2023/08/13 06:47:18;;;;;;;;;;;18.30;99.90;;;;;;4986097;28;19936;-95
2023/08/13 06:49:43;;;;;;;;;;;18.40;99.90;;;;;;5002778;28;20263;-96
2023/08/13 06:52:09;;;;;;;;;;;18.50;99.90;;;;;;4986504;28;19924;-95
2023/08/13 06:54:34;;;;;;;;;;;18.50;99.90;;;;;;4987840;28;19920;-96
2023/08/13 06:57:03;;;;;;;;;;;18.50;99.90;;;;;;5010179;28;19917;-95
2023/08/13 06:59:29;;;;;;;;;;;18.50;99.90;;;;;;5009498;28;19916;-92
2023/08/13 07:01:55;;;;;;;;;;;18.60;99.90;;;;;;5002139;28;19949;-92
2023/08/13 07:04:23;;;;;;;;;;;18.70;99.90;;;;;;5001770;28;19959;-91
2023/08/13 07:06:49;;;;;;;;;;;18.70;99.90;;;;;;4988621;28;19920;-96
2023/08/13 07:09:15;;;;;;;;;;;18.70;99.90;;;;;;5008938;28;19909;-96
2023/08/13 07:11:40;;;;;;;;;;;18.80;99.90;;;;;;5012078;28;19921;-96
2023/08/13 07:14:07;;;;;;;;;;;18.80;99.90;;;;;;5011841;28;19909;-95
2023/08/13 07:16:34;;;;;;;;;;;18.90;99.90;;;;;;5003113;28;19933;-92
2023/08/13 07:19:00;;;;;;;;;;;18.90;99.90;;;;;;4984724;28;19964;-93
2023/08/13 07:21:26;;;;;;;;;;;19.00;99.90;;;;;;5000656;28;19909;-91
2023/08/13 07:23:51;;;;;;;;;;;19.00;99.90;;;;;;4984568;28;20363;-92
2023/08/13 07:26:17;;;;;;;;;;;19.10;99.90;;;;;;4984845;28;19936;-92
2023/08/13 07:31:50;;;;;;;;;;;19.20;99.90;;;;;;4978613;28;20013;-96
2023/08/13 07:34:15;;;;;;;;;;;19.30;99.90;;;;;;4985192;28;19960;-94
2023/08/13 07:36:41;;;;;;;;;;;19.40;99.90;;;;;;4984849;28;19913;-96
2023/08/13 07:39:09;;;;;;;;;;;19.50;99.90;;;;;;4988051;28;20426;-95
2023/08/13 07:41:34;;;;;;;;;;;19.50;99.90;;;;;;5005324;28;19914;-96
2023/08/13 07:44:01;;;;;;;;;;;19.60;99.90;;;;;;4985409;28;19921;-95
2023/08/13 07:46:26;;;;;;;;;;;19.60;99.90;;;;;;5000899;28;19925;-94
2023/08/13 07:48:52;;;;;;;;;;;19.80;99.90;;;;;;5000739;28;19909;-90
2023/08/13 07:51:17;;;;;;;;;;;19.80;99.90;;;;;;5000277;28;19923;-91
2023/08/13 07:53:43;;;;;;;;;;;19.80;99.90;;;;;;4984187;28;19921;-91
2023/08/13 07:56:09;;;;;;;;;;;20.00;99.90;;;;;;5000517;28;20028;-91
2023/08/13 07:58:34;;;;;;;;;;;20.00;99.90;;;;;;4983145;28;19914;-90
2023/08/13 08:01:00;;;;;;;;;;;20.10;99.90;;;;;;5000637;28;19913;-91
2023/08/13 08:03:26;;;;;;;;;;;20.20;99.90;;;;;;5000756;28;19910;-91
2023/08/13 08:06:12;;;;;;;;;;;20.20;99.90;;;;;;5009170;28;19932;-94
2023/08/13 08:11:41;;;;;;;;;;;20.40;99.90;;;;;;4992839;28;19973;-94
2023/08/13 08:14:07;;;;;;;;;;;20.40;99.90;;;;;;4964063;28;19918;-95
2023/08/13 08:16:33;;;;;;;;;;;20.50;99.90;;;;;;4962653;28;19910;-94
2023/08/13 08:18:59;;;;;;;;;;;20.50;99.90;;;;;;4964273;28;19922;-95
2023/08/13 08:21:24;;;;;;;;;;;20.60;99.90;;;;;;4963621;28;20268;-94
2023/08/13 08:23:50;;;;;;;;;;;20.70;99.90;;;;;;4960789;28;19965;-96
2023/08/13 08:26:16;;;;;;;;;;;20.70;99.90;;;;;;4976615;28;19951;-93
2023/08/13 08:28:41;;;;;;;;;;;20.80;99.90;;;;;;4960315;28;19965;-93
2023/08/13 08:31:07;;;;;;;;;;;20.90;99.90;;;;;;4976427;28;19918;-94
2023/08/13 08:33:33;;;;;;;;;;;21.00;99.90;;;;;;4960662;28;19914;-93
2023/08/13 08:35:58;;;;;;;;;;;21.00;99.90;;;;;;4964972;28;19978;-95
2023/08/13 08:38:24;;;;;;;;;;;21.10;99.90;;;;;;4970163;28;19910;-94
2023/08/13 08:40:51;;;;;;;;;;;21.10;99.90;;;;;;4983138;28;20015;-93
2023/08/13 08:43:17;;;;;;;;;;;21.20;99.90;;;;;;4999263;28;19920;-94
2023/08/13 08:45:43;;;;;;;;;;;21.20;99.90;;;;;;4983272;28;20015;-94
2023/08/13 08:48:12;;;;;;;;;;;21.30;99.90;;;;;;4999409;28;19913;-95
2023/08/13 08:50:39;;;;;;;;;;;21.40;99.90;;;;;;5005768;28;19922;-94
2023/08/13 08:53:05;;;;;;;;;;;21.40;99.90;;;;;;4983097;28;19943;-94
2023/08/13 08:55:30;;;;;;;;;;;21.40;99.90;;;;;;4999849;28;19956;-95
2023/08/13 08:57:56;;;;;;;;;;;21.50;99.90;;;;;;5001247;28;19909;-94
2023/08/13 09:00:21;;;;;;;;;;;21.50;99.90;;;;;;5000595;28;19910;-95
2023/08/13 09:02:48;;;;;;;;;;;21.60;99.90;;;;;;4985520;28;19921;-95
2023/08/13 09:05:14;;;;;;;;;;;21.60;99.90;;;;;;4987943;28;19920;-95
2023/08/13 09:07:43;;;;;;;;;;;21.70;99.90;;;;;;5001381;28;19961;-95
2023/08/13 09:10:09;;;;;;;;;;;21.70;99.90;;;;;;5000913;28;19968;-96
2023/08/13 09:12:40;;;;;;;;;;;21.80;99.90;;;;;;5006315;28;19913;-96
2023/08/13 09:15:09;;;;;;;;;;;21.80;99.90;;;;;;5010655;28;19909;-96
2023/08/13 09:20:45;;;;;;;;;;;21.90;99.90;;;;;;5016940;28;19917;-95
2023/08/13 09:23:23;;;;;;;;;;;22.00;99.90;;;;;;4999834;28;19911;-94
2023/08/13 09:25:53;;;;;;;;;;;22.00;99.90;;;;;;4984270;28;19917;-95
2023/08/13 09:28:19;;;;;;;;;;;22.00;99.90;;;;;;4999694;28;19913;-91
2023/08/13 09:30:44;;;;;;;;;;;22.10;99.90;;;;;;4998852;28;19913;-92
2023/08/13 09:33:13;;;;;;;;;;;22.10;99.90;;;;;;4998671;28;19932;-91
2023/08/13 09:35:39;;;;;;;;;;;22.10;99.90;;;;;;4998283;28;19913;-91
2023/08/13 09:38:05;;;;;;;;;;;22.10;99.90;;;;;;4998234;28;19932;-91
2023/08/13 09:40:30;;;;;;;;;;;22.10;99.90;;;;;;4998364;28;20366;-92
2023/08/13 09:42:58;;;;;;;;;;;22.10;99.90;;;;;;4997994;28;19917;-93
2023/08/13 09:45:26;;;;;;;;;;;22.10;99.90;;;;;;4999672;28;19984;-96
2023/08/13 09:47:53;;;;;;;;;;;22.10;99.90;;;;;;4999652;28;19914;-96
2023/08/13 09:50:26;;;;;;;;;;;22.10;99.90;;;;;;4998446;28;19925;-96
2023/08/13 10:03:32;;;;;;;;;;;22.20;99.90;;;;;;6033802;23;19924;-92
2023/08/13 10:05:58;;;;;;;;;;;22.20;99.90;;;;;;4997923;28;19925;-93
2023/08/13 10:08:24;;;;;;;;;;;22.30;99.90;;;;;;4982272;28;19913;-92
2023/08/13 10:10:50;;;;;;;;;;;22.30;99.90;;;;;;4998579;28;19961;-91
2023/08/13 10:13:15;;;;;;;;;;;22.30;99.90;;;;;;4981810;28;20314;-92
2023/08/13 10:15:42;;;;;;;;;;;22.30;99.90;;;;;;4982110;28;19917;-91
2023/08/13 10:18:09;;;;;;;;;;;22.40;99.90;;;;;;4981936;28;20347;-92
2023/08/13 10:20:35;;;;;;;;;;;22.40;99.90;;;;;;5005251;28;19910;-95
2023/08/13 10:23:01;;;;;;;;;;;22.40;99.90;;;;;;4995935;28;20040;-96
2023/08/13 10:25:32;;;;;;;;;;;22.40;99.90;;;;;;5008733;28;19916;-96
2023/08/13 10:27:58;;;;;;;;;;;22.50;99.90;;;;;;5009074;28;19996;-94
2023/08/13 10:30:23;;;;;;;;;;;22.50;99.90;;;;;;5008472;28;19937;-94
2023/08/13 10:32:59;;;;;;;;;;;22.60;99.90;;;;;;5007401;28;19952;-93
2023/08/13 10:35:39;;;;;;;;;;;22.60;99.90;;;;;;5007278;28;19914;-93
2023/08/13 10:38:05;;;;;;;;;;;22.60;99.90;;;;;;5003022;28;19917;-93
2023/08/13 10:40:31;;;;;;;;;;;22.70;99.90;;;;;;5003251;28;19916;-93
2023/08/13 10:42:57;;;;;;;;;;;22.70;99.90;;;;;;5002993;28;20360;-93
2023/08/13 10:45:24;;;;;;;;;;;22.80;99.90;;;;;;4990558;28;19920;-93
2023/08/13 10:47:50;;;;;;;;;;;22.80;99.90;;;;;;5013888;28;19910;-92
2023/08/13 10:50:20;;;;;;;;;;;22.80;99.90;;;;;;5002692;28;19910;-93
2023/08/13 10:52:47;;;;;;;;;;;22.80;99.90;;;;;;5002115;28;19997;-92
2023/08/13 10:55:16;;;;;;;;;;;22.80;99.90;;;;;;5001992;28;19916;-92
2023/08/13 10:57:42;;;;;;;;;;;22.90;99.90;;;;;;5002046;28;19914;-92
2023/08/13 11:00:12;;;;;;;;;;;22.90;99.90;;;;;;5002233;28;20365;-93
2023/08/13 11:02:37;;;;;;;;;;;23.00;99.90;;;;;;5002383;28;19910;-91
2023/08/13 11:05:03;;;;;;;;;;;23.00;99.90;;;;;;4987070;28;20020;-92
2023/08/13 11:10:33;;;;;;;;;;;22.90;99.90;;;;;;5019535;28;19968;-96
2023/08/13 11:13:00;;;;;;;;;;;22.90;99.90;;;;;;4985816;28;19913;-95
2023/08/13 11:15:29;;;;;;;;;;;22.80;99.90;;;;;;5010912;28;19910;-94
2023/08/13 11:17:55;;;;;;;;;;;22.90;99.90;;;;;;5009707;28;19954;-94
2023/08/13 11:20:20;;;;;;;;;;;22.90;99.90;;;;;;4987380;28;19956;-91
2023/08/13 11:22:46;;;;;;;;;;;22.80;99.90;;;;;;4985447;28;19981;-91
2023/08/13 11:25:13;;;;;;;;;;;22.80;99.90;;;;;;5003269;28;20008;-93
2023/08/13 11:27:38;;;;;;;;;;;22.90;99.90;;;;;;5001794;28;19910;-91
2023/08/13 11:30:05;;;;;;;;;;;22.90;99.90;;;;;;4985313;28;19913;-93
2023/08/13 11:32:30;;;;;;;;;;;23.00;99.90;;;;;;4985263;28;19918;-92
2023/08/13 11:34:57;;;;;;;;;;;23.00;99.90;;;;;;5003820;28;19909;-93
2023/08/13 11:37:23;;;;;;;;;;;23.00;99.90;;;;;;5003903;28;19910;-93
2023/08/13 11:39:49;;;;;;;;;;;23.00;99.90;;;;;;4988556;28;20375;-92
2023/08/13 11:42:14;;;;;;;;;;;23.10;99.90;;;;;;5003919;28;19909;-96
2023/08/13 11:44:40;;;;;;;;;;;23.10;99.90;;;;;;5009922;28;19909;-95
2023/08/13 11:47:06;;;;;;;;;;;23.10;99.90;;;;;;5010074;28;19910;-95
2023/08/13 11:49:39;;;;;;;;;;;23.20;99.90;;;;;;5008146;28;19914;-94
2023/08/13 11:52:06;;;;;;;;;;;23.20;99.90;;;;;;5001832;28;19913;-94
2023/08/13 11:54:34;;;;;;;;;;;23.20;99.90;;;;;;4985746;28;19937;-94
2023/08/13 11:56:59;;;;;;;;;;;23.20;99.90;;;;;;5000476;28;19917;-94
2023/08/13 11:59:25;;;;;;;;;;;23.20;99.90;;;;;;4984870;28;19913;-91
2023/08/13 12:01:54;;;;;;;;;;;23.20;99.90;;;;;;4985031;28;19914;-91
2023/08/13 12:04:21;;;;;;;;;;;23.20;99.90;;;;;;5000250;28;19971;-91
2023/08/13 12:06:47;;;;;;;;;;;23.30;99.90;;;;;;5000199;28;19963;-91
2023/08/13 12:09:13;;;;;;;;;;;23.40;99.90;;;;;;4984106;28;20004;-92
2023/08/13 12:11:42;;;;;;;;;;;23.50;99.90;;;;;;4984281;28;19925;-91
2023/08/13 12:14:07;;;;;;;;;;;23.60;99.90;;;;;;5000714;28;19909;-90
2023/08/13 12:16:33;;;;;;;;;;;23.80;99.90;;;;;;4989226;28;19921;-96
2023/08/13 12:19:05;;;;;;;;;;;23.80;99.90;;;;;;5009801;28;19910;-96
2023/08/13 12:21:32;;;;;;;;;;;23.90;99.90;;;;;;5004793;28;19913;-95
2023/08/13 12:23:58;;;;;;;;;;;23.90;99.90;;;;;;5005841;28;20351;-96
2023/08/13 12:26:26;;;;;;;;;;;24.00;99.90;;;;;;5012114;28;20000;-96
2023/08/13 12:28:55;;;;;;;;;;;24.00;99.90;;;;;;5012499;28;19913;-96
2023/08/13 12:31:22;;;;;;;;;;;24.00;99.90;;;;;;5013607;28;19983;-96
2023/08/13 12:33:48;;;;;;;;;;;24.00;99.90;;;;;;5012416;28;19910;-94
2023/08/13 12:36:13;;;;;;;;;;;24.00;99.90;;;;;;5010749;28;19910;-93
2023/08/13 12:38:39;;;;;;;;;;;24.00;99.90;;;;;;5008131;28;20366;-93
2023/08/13 12:41:08;;;;;;;;;;;23.90;99.90;;;;;;5006114;28;19910;-91
2023/08/13 12:43:37;;;;;;;;;;;23.90;99.90;;;;;;5005436;28;19910;-91
2023/08/13 12:46:03;;;;;;;;;;;23.80;99.90;;;;;;4989026;28;19937;-93
2023/08/13 12:48:37;;;;;;;;;;;23.80;99.90;;;;;;4988568;28;19918;-95
2023/08/13 12:51:03;;;;;;;;;;;23.80;99.90;;;;;;5013537;28;19913;-96
2023/08/13 12:53:29;;;;;;;;;;;23.70;99.90;;;;;;5015693;28;20270;-95
2023/08/13 12:55:55;;;;;;;;;;;23.60;99.90;;;;;;5014933;28;19924;-96
2023/08/13 12:58:21;;;;;;;;;;;23.60;99.90;;;;;;5013219;28;19953;-96
2023/08/13 13:00:52;;;;;;;;;;;23.60;99.90;;;;;;5012981;28;20009;-96
2023/08/13 13:03:18;;;;;;;;;;;23.70;99.90;;;;;;4992772;28;19913;-93
2023/08/13 13:05:44;;;;;;;;;;;23.70;99.90;;;;;;5002392;28;19913;-93
2023/08/13 13:08:09;;;;;;;;;;;23.70;99.90;;;;;;4999410;28;19955;-93
2023/08/13 13:10:38;;;;;;;;;;;23.80;99.90;;;;;;4999737;28;20385;-94
2023/08/13 13:13:03;;;;;;;;;;;23.80;99.90;;;;;;4999756;28;19936;-93
2023/08/13 13:15:29;;;;;;;;;;;23.80;99.90;;;;;;5000082;28;19909;-92
2023/08/13 13:17:55;;;;;;;;;;;23.80;99.90;;;;;;4982878;28;19956;-93
2023/08/13 13:20:22;;;;;;;;;;;23.80;99.90;;;;;;4998745;28;19917;-93
2023/08/13 13:22:48;;;;;;;;;;;23.80;99.90;;;;;;4983294;28;20278;-93
2023/08/13 13:25:17;;;;;;;;;;;23.80;99.90;;;;;;5006739;28;19917;-93
2023/08/13 13:27:46;;;;;;;;;;;23.90;99.90;;;;;;5009341;28;19920;-92
2023/08/13 13:30:11;;;;;;;;;;;23.90;99.90;;;;;;4988762;28;19924;-92
2023/08/13 13:32:37;;;;;;;;;;;24.00;99.90;;;;;;4982700;28;19917;-93
2023/08/13 13:35:03;;;;;;;;;;;24.00;99.90;;;;;;4982529;28;19913;-93
2023/08/13 13:37:29;;;;;;;;;;;24.10;99.90;;;;;;4982951;28;19962;-93
2023/08/13 13:39:55;;;;;;;;;;;24.10;99.90;;;;;;4985331;28;19967;-96
2023/08/13 13:42:20;;;;;;;;;;;24.10;99.90;;;;;;5002702;28;20008;-96
2023/08/13 13:44:46;;;;;;;;;;;24.20;99.90;;;;;;5005693;28;19972;-96
2023/08/13 13:47:11;;;;;;;;;;;24.20;99.90;;;;;;5004285;28;20342;-96
2023/08/13 13:49:37;;;;;;;;;;;24.20;99.90;;;;;;5001501;28;19949;-95
2023/08/13 13:52:03;;;;;;;;;;;24.20;99.90;;;;;;4990179;28;20421;-96
2023/08/13 13:54:29;;;;;;;;;;;24.20;99.90;;;;;;5004758;28;20476;-96
2023/08/13 13:56:55;;;;;;;;;;;24.20;99.90;;;;;;5003940;28;19910;-96
2023/08/13 13:59:21;;;;;;;;;;;24.20;99.90;;;;;;4987730;28;19921;-96
2023/08/13 14:01:47;;;;;;;;;;;24.20;99.90;;;;;;4989453;28;19936;-96
2023/08/13 14:04:12;;;;;;;;;;;24.30;99.90;;;;;;5008988;28;19957;-96
2023/08/13 14:06:38;;;;;;;;;;;24.30;99.90;;;;;;5011555;28;19909;-96
2023/08/13 14:09:07;;;;;;;;;;;24.30;99.90;;;;;;5011366;28;20031;-96
2023/08/13 14:11:32;;;;;;;;;;;24.30;99.90;;;;;;5001207;28;19907;-92
2023/08/13 14:13:58;;;;;;;;;;;24.30;99.90;;;;;;5007039;28;19952;-95
2023/08/13 14:16:24;;;;;;;;;;;24.30;99.90;;;;;;5014487;28;19910;-96
2023/08/13 14:18:53;;;;;;;;;;;24.30;99.90;;;;;;5014761;28;19910;-96
2023/08/13 14:21:18;;;;;;;;;;;24.40;99.90;;;;;;5016360;28;19910;-96
2023/08/13 14:23:48;;;;;;;;;;;24.40;99.90;;;;;;5014985;28;19917;-96
2023/08/13 14:26:17;;;;;;;;;;;24.40;99.90;;;;;;5006258;28;20398;-96
2023/08/13 14:28:42;;;;;;;;;;;24.50;99.90;;;;;;5007278;28;19914;-96
2023/08/13 14:31:08;;;;;;;;;;;24.50;99.90;;;;;;5001112;28;19914;-94
2023/08/13 14:33:45;;;;;;;;;;;24.50;99.90;;;;;;4985176;28;20024;-96